那覇 の空港の天気 - METARとTAF

那覇空港 ( ROAH / OKA ) - 沖縄県那覇市
飛行場実況気象(Metar)
観測時間07/19 12:09 JST (07/19 03:09 UTC)
風向・風速南南東 12m/s
視程9000m
天気現象弱いしゅう雨
全天の4割程度の雲 雲底高度 610m
全天の8割程度の雲 雲底高度 760m
少しの雲 雲底高度 910m
全天の8割程度の雲 雲底高度 4270m
気温30℃
湿度79%
気圧1003hPa
METARROAH 190309Z 16023KT 9000 -SHRA SCT020 BKN025 FEW030TCU BKN140 30/26 Q1003 RMK 4CU020 5CU025 1TCU030 7AC140 A2963 TCU 14KM N MOV N
過去の天気等 Google飛行場航空写真 Wunderground天気予報

過去48時間のMETAR

飛行場予報(TAF)
発表時間: 7/19 12:04 JST (7/19 03:04 UTC)
予報対象時間: 19日12時 JST ~ 20日15時 JST
風向・風速南 11m/s
視程10km以上
少しの雲 雲底高度 300m
全天の8割程度の雲 雲底高度 610m
19日12時 JST ~ 19日14時 JST に一時的に
風向・風速南 13m/s 瞬間風速 18m/s
天気現象しゅう雨
少しの雲 雲底高度 300m
全天の8割程度の雲 雲底高度 610m
少しの積乱雲 雲底高度 760m
19日14時 JST ~ 19日16時 JST に一時的に
風向・風速南 13m/s 瞬間風速 18m/s
20日9時 JST ~ 20日15時 JST に一時的に
視程2000m
天気現象強い雷雨
少しの雲 雲底高度 120m
全天の8割程度の雲 雲底高度 240m
全天の4割程度の積乱雲 雲底高度 610m
TAF AMD ROAH 190304Z 1903/2006 18022KT 9999 FEW010 BKN020
TEMPO 1903/1905 18025G35KT SHRA FEW010 BKN020 FEW025CB
TEMPO 1905/1907 18025G35KT
TEMPO 2000/2006 2000 +TSRA FEW004 BKN008 SCT020CB
日本の空港のMETAR・TAFへのリンク

RJTT 東京国際空港
RJAA 新東京国際空港
RJBB 関西国際空港
RJOO 大阪空港
RJGG 中部国際空港
RJCC 新千歳空港
RJFF 福岡空港
ROAH 那覇空港


RJEC 旭川空港
RJCH 函館空港
RJCK 釧路空港
RJCM 女満別空港
RJCB 帯広空港
RJSA 青森空港
RJSS 仙台空港
RJSK 秋田空港
RJSF 福島空港
RJAH 茨城空港
RJSN 新潟空港
RJNT 富山空港
RJNK 小松飛行場
RJNS 静岡空港
RJOH 美保飛行場
RJOC 出雲空港
RJOB 岡山空港
RJOA 広島空港
RJOI 岩国飛行場
RJOT 高松空港
RJOM 松山空港
RJOK 高知空港
RJFR 北九州空港
RJFT 熊本空港
RJFU 長崎空港
RJFS 佐賀空港
RJFO 大分空港
RJFM 宮崎空港
RJFK 鹿児島空港
ROIG 石垣島空港
RJTY 横田飛行場
ROTM 普天間飛行場
RODN 嘉手納飛行場